createdAt,value
2023-03-15T00:02:06.428Z,7.35
2023-03-15T00:04:33.648Z,4.82
2023-03-15T00:07:01.202Z,5.25
2023-03-15T00:09:28.678Z,5.03
2023-03-15T00:11:55.653Z,2.83
2023-03-15T00:14:23.112Z,4.28
2023-03-15T00:16:50.627Z,2.33
2023-03-15T00:19:17.775Z,3.28
2023-03-15T00:21:44.790Z,4.07
2023-03-15T00:24:12.214Z,4.55
2023-03-15T00:26:39.270Z,4.25
2023-03-15T00:29:09.037Z,3.70
2023-03-15T00:31:36.545Z,3.92
2023-03-15T00:34:03.729Z,2.60
2023-03-15T00:36:32.909Z,3.05
2023-03-15T00:39:00.173Z,2.92
2023-03-15T00:41:27.169Z,2.30
2023-03-15T00:43:54.427Z,3.55
2023-03-15T00:46:21.540Z,3.42
2023-03-15T00:48:51.011Z,5.28
2023-03-15T00:51:22.963Z,4.85
2023-03-15T00:53:53.148Z,2.42
2023-03-15T00:56:24.715Z,4.78
2023-03-15T00:58:53.035Z,6.03
2023-03-15T01:01:28.391Z,5.80
2023-03-15T01:03:56.580Z,6.65
2023-03-15T01:06:28.264Z,6.15
2023-03-15T01:08:57.012Z,7.53
2023-03-15T01:11:27.370Z,6.13
2023-03-15T01:13:57.790Z,8.02
2023-03-15T01:16:26.817Z,7.07
2023-03-15T01:18:54.620Z,6.65
2023-03-15T01:21:24.037Z,8.00
2023-03-15T01:23:51.936Z,5.85
2023-03-15T01:26:22.855Z,6.65
2023-03-15T01:28:50.452Z,6.75
2023-03-15T01:31:28.337Z,6.70
2023-03-15T01:33:58.302Z,7.38
2023-03-15T01:36:27.655Z,6.00
2023-03-15T01:38:55.510Z,5.43
2023-03-15T01:41:30.780Z,6.10
2023-03-15T01:43:58.060Z,4.68
2023-03-15T01:46:36.153Z,3.72
2023-03-15T01:49:25.591Z,1.83
2023-03-15T01:52:05.176Z,3.88
2023-03-15T01:55:07.859Z,2.60
2023-03-15T01:57:57.510Z,2.42
2023-03-15T02:00:27.588Z,1.77
2023-03-15T02:03:14.352Z,1.90
2023-03-15T02:05:54.643Z,2.13
2023-03-15T02:09:02.496Z,2.33
2023-03-15T02:11:35.402Z,2.65
2023-03-15T02:14:06.577Z,0.52
2023-03-15T02:16:36.186Z,1.20
2023-03-15T02:19:33.978Z,2.20
2023-03-15T02:22:25.488Z,1.52
2023-03-15T02:25:21.504Z,2.85
2023-03-15T02:27:49.165Z,2.03
2023-03-15T02:30:16.164Z,2.08
2023-03-15T02:32:43.652Z,2.67
2023-03-15T02:35:11.358Z,2.10
2023-03-15T02:37:38.975Z,2.90
2023-03-15T02:40:20.188Z,3.30
2023-03-15T02:42:54.555Z,2.10
2023-03-15T02:45:23.889Z,3.25
2023-03-15T02:47:51.962Z,4.80
2023-03-15T02:50:19.351Z,2.63
2023-03-15T02:52:46.841Z,3.65
2023-03-15T02:55:13.951Z,3.38
2023-03-15T02:57:41.187Z,5.10
2023-03-15T03:00:14.328Z,5.05
2023-03-15T03:02:45.319Z,3.38
2023-03-15T03:05:14.917Z,3.20
2023-03-15T03:07:42.866Z,3.53
2023-03-15T03:10:16.387Z,3.75
2023-03-15T03:12:53.617Z,4.32
2023-03-15T03:15:27.096Z,4.20
2023-03-15T03:17:54.508Z,4.15
2023-03-15T03:20:23.372Z,5.30
2023-03-15T03:22:50.702Z,3.45
2023-03-15T03:25:18.686Z,3.80
2023-03-15T03:27:48.098Z,4.95
2023-03-15T03:30:16.507Z,5.28
2023-03-15T03:32:51.111Z,4.05
2023-03-15T03:35:18.353Z,4.57
2023-03-15T03:37:45.645Z,5.38
2023-03-15T03:40:17.714Z,4.05
2023-03-15T03:42:45.293Z,5.97
2023-03-15T03:45:12.663Z,3.80
2023-03-15T03:47:43.607Z,3.35
2023-03-15T03:50:11.705Z,4.60
2023-03-15T03:52:39.252Z,6.38
2023-03-15T03:55:13.725Z,5.93
2023-03-15T03:57:43.643Z,5.53
2023-03-15T04:00:20.293Z,6.15
2023-03-15T04:02:47.870Z,5.30
2023-03-15T04:05:16.496Z,7.25
2023-03-15T04:07:44.571Z,7.60
2023-03-15T04:10:14.697Z,8.18
2023-03-15T04:12:44.841Z,4.15
2023-03-15T04:15:13.331Z,6.47
2023-03-15T04:17:42.645Z,5.00
2023-03-15T04:20:12.901Z,8.07
2023-03-15T04:22:49.462Z,5.32
2023-03-15T04:25:31.099Z,6.15
2023-03-15T04:28:27.460Z,6.30
2023-03-15T04:31:05.074Z,4.60
2023-03-15T04:33:45.912Z,5.60
2023-03-15T04:36:31.234Z,5.05
2023-03-15T04:39:14.083Z,4.40
2023-03-15T04:41:57.795Z,4.40
2023-03-15T04:44:31.236Z,8.15
2023-03-15T04:47:18.337Z,6.57
2023-03-15T04:50:05.426Z,8.15
2023-03-15T04:52:40.411Z,9.40
2023-03-15T04:55:21.198Z,7.13
2023-03-15T04:57:58.730Z,5.47
2023-03-15T05:00:41.194Z,5.63
2023-03-15T05:03:23.740Z,6.30
2023-03-15T05:06:08.025Z,5.43
2023-03-15T05:08:55.756Z,3.53
2023-03-15T05:11:41.822Z,4.65
2023-03-15T05:14:34.274Z,6.95
2023-03-15T05:17:25.253Z,5.72
2023-03-15T05:20:01.844Z,7.65
2023-03-15T05:22:48.898Z,5.32
2023-03-15T05:25:33.973Z,8.27
2023-03-15T05:28:28.742Z,6.75
2023-03-15T05:31:10.990Z,4.15
2023-03-15T05:34:04.335Z,5.75
2023-03-15T05:36:47.180Z,6.13
2023-03-15T05:39:27.327Z,7.45
2023-03-15T05:42:15.150Z,6.30
2023-03-15T05:44:59.527Z,8.20
2023-03-15T05:47:56.580Z,5.95
2023-03-15T05:50:28.166Z,6.32
2023-03-15T05:53:13.962Z,7.70
2023-03-15T05:56:00.682Z,9.05
2023-03-15T05:58:51.017Z,10.73
2023-03-15T06:01:30.438Z,12.13
2023-03-15T06:04:09.975Z,13.82
2023-03-15T06:06:37.536Z,10.27
2023-03-15T06:09:07.392Z,13.35
2023-03-15T06:11:35.765Z,8.20
2023-03-15T06:14:03.031Z,6.82
2023-03-15T06:16:37.297Z,8.23
2023-03-15T06:19:04.961Z,13.20
2023-03-15T06:21:32.490Z,8.40
2023-03-15T06:24:00.692Z,9.30
2023-03-15T06:26:27.916Z,6.85
2023-03-15T06:29:00.480Z,7.80
2023-03-15T06:31:27.774Z,8.52
2023-03-15T06:34:02.292Z,10.10
2023-03-15T06:36:31.324Z,7.28
2023-03-15T06:38:58.275Z,6.10
2023-03-15T06:41:26.868Z,7.97
2023-03-15T06:44:00.568Z,8.27
2023-03-15T06:46:28.228Z,9.95
2023-03-15T06:48:56.028Z,8.32
2023-03-15T06:51:23.771Z,7.85
2023-03-15T06:53:50.908Z,10.35
2023-03-15T06:56:18.832Z,9.35
2023-03-15T06:58:45.788Z,15.57
2023-03-15T07:01:14.614Z,10.60
2023-03-15T07:03:42.595Z,8.88
2023-03-15T07:06:09.954Z,8.85
2023-03-15T07:08:36.931Z,10.10
2023-03-15T07:11:04.498Z,14.80
2023-03-15T07:13:31.441Z,12.90
2023-03-15T07:15:58.769Z,10.52
2023-03-15T07:18:25.644Z,15.60
2023-03-15T07:21:00.897Z,8.80
2023-03-15T07:23:29.969Z,6.88
2023-03-15T07:25:57.405Z,7.22
2023-03-15T07:28:26.650Z,8.35
2023-03-15T07:30:58.503Z,7.95
2023-03-15T07:33:27.990Z,7.60
2023-03-15T07:35:56.078Z,7.38
2023-03-15T07:38:26.726Z,10.63
2023-03-15T07:40:54.297Z,9.63
2023-03-15T07:43:21.995Z,10.98
2023-03-15T07:45:51.451Z,15.02
2023-03-15T07:48:18.853Z,11.70
2023-03-15T07:50:46.887Z,12.68
2023-03-15T07:53:14.177Z,12.63
2023-03-15T07:55:41.565Z,13.00
2023-03-15T07:58:08.467Z,13.48
2023-03-15T08:00:35.668Z,9.68
2023-03-15T08:03:02.706Z,11.80
2023-03-15T08:05:30.271Z,9.77
2023-03-15T08:07:57.301Z,9.88
2023-03-15T08:10:24.518Z,13.73
2023-03-15T08:12:52.206Z,9.45
2023-03-15T08:15:20.673Z,9.27
2023-03-15T08:17:48.973Z,8.85
2023-03-15T08:20:19.924Z,14.43
2023-03-15T08:22:49.728Z,12.65
2023-03-15T08:25:23.265Z,10.30
2023-03-15T08:27:52.198Z,8.18
2023-03-15T08:30:21.474Z,6.88
2023-03-15T08:32:52.484Z,7.25
2023-03-15T08:35:22.696Z,9.80
2023-03-15T08:37:52.249Z,8.38
2023-03-15T08:40:24.182Z,12.38
2023-03-15T08:42:53.425Z,11.73
2023-03-15T08:45:21.231Z,12.70
2023-03-15T08:47:48.344Z,11.82
2023-03-15T08:50:17.577Z,12.73
2023-03-15T08:52:44.469Z,11.65
2023-03-15T08:55:14.280Z,9.32
2023-03-15T08:57:42.935Z,11.60
2023-03-15T09:00:20.769Z,9.23
2023-03-15T09:02:50.204Z,6.97
2023-03-15T09:05:18.418Z,9.13
2023-03-15T09:07:46.570Z,8.73
2023-03-15T09:10:16.905Z,11.98
2023-03-15T09:12:47.215Z,7.97
2023-03-15T09:15:15.393Z,10.00
2023-03-15T09:17:43.625Z,8.75
2023-03-15T09:20:18.710Z,10.52
2023-03-15T09:22:53.086Z,14.23
2023-03-15T09:25:21.419Z,9.63
2023-03-15T09:27:48.456Z,12.00
2023-03-15T09:30:16.604Z,14.38
2023-03-15T09:32:44.515Z,10.45
2023-03-15T09:35:18.836Z,14.50
2023-03-15T09:37:47.124Z,15.13
2023-03-15T09:40:27.183Z,14.07
2023-03-15T09:43:18.513Z,17.77
2023-03-15T09:46:19.356Z,27.63
2023-03-15T09:49:41.422Z,26.90
2023-03-15T09:52:43.797Z,12.10
2023-03-15T09:55:23.724Z,8.20
2023-03-15T09:57:59.871Z,9.55
2023-03-15T10:00:41.689Z,10.15
2023-03-15T10:03:23.279Z,10.45
2023-03-15T10:05:59.112Z,7.00
2023-03-15T10:08:26.734Z,6.88
2023-03-15T10:11:21.441Z,6.25
2023-03-15T10:14:14.226Z,6.57
2023-03-15T10:16:45.991Z,6.22
2023-03-15T10:19:49.745Z,7.95
2023-03-15T10:22:45.333Z,9.38
2023-03-15T10:25:26.427Z,8.45
2023-03-15T10:28:04.012Z,7.95
2023-03-15T10:30:35.705Z,9.82
2023-03-15T10:33:16.186Z,10.75
2023-03-15T10:35:43.733Z,7.97
2023-03-15T10:38:20.582Z,7.07
2023-03-15T10:40:58.227Z,8.70
2023-03-15T10:43:32.048Z,20.90
2023-03-15T10:46:13.597Z,16.60
2023-03-15T10:49:08.451Z,8.07
2023-03-15T10:51:47.927Z,11.70
2023-03-15T10:54:24.887Z,23.13
2023-03-15T10:57:12.917Z,15.07
2023-03-15T11:00:33.727Z,13.50
2023-03-15T11:03:06.656Z,12.70
2023-03-15T11:05:49.261Z,11.85
2023-03-15T11:08:20.466Z,15.20
2023-03-15T11:10:59.306Z,13.48
2023-03-15T11:13:30.747Z,8.68
2023-03-15T11:16:12.655Z,7.15
2023-03-15T11:18:55.102Z,6.72
2023-03-15T11:21:30.706Z,4.35
2023-03-15T11:24:01.005Z,8.68
2023-03-15T11:26:33.582Z,7.10
2023-03-15T11:29:27.798Z,4.78
2023-03-15T11:31:56.712Z,5.43
2023-03-15T11:34:48.458Z,5.07
2023-03-15T11:37:32.484Z,8.57
2023-03-15T11:40:39.695Z,4.00
2023-03-15T11:43:25.055Z,7.43
2023-03-15T11:46:00.908Z,6.50
2023-03-15T11:48:47.789Z,4.70
2023-03-15T11:51:15.396Z,5.55
2023-03-15T11:54:04.216Z,5.57
2023-03-15T11:56:43.431Z,4.82
2023-03-15T11:59:16.629Z,8.18
2023-03-15T12:01:52.379Z,7.28
2023-03-15T12:04:25.500Z,4.68
2023-03-15T12:06:58.518Z,7.07
2023-03-15T12:12:27.002Z,6.10
2023-03-15T12:15:13.922Z,6.65
2023-03-15T12:17:58.028Z,6.47
2023-03-15T12:20:36.640Z,5.45
2023-03-15T12:23:30.915Z,8.45
2023-03-15T12:26:03.378Z,8.05
2023-03-15T12:28:52.165Z,8.48
2023-03-15T12:31:20.157Z,7.80
2023-03-15T12:33:58.208Z,6.78
2023-03-15T12:36:38.731Z,6.93
2023-03-15T12:39:17.083Z,9.23
2023-03-15T12:41:50.656Z,12.63
2023-03-15T12:44:31.763Z,10.63
2023-03-15T12:47:05.215Z,8.10
2023-03-15T12:49:44.017Z,9.43
2023-03-15T12:52:11.834Z,7.00
2023-03-15T12:54:57.005Z,7.05
2023-03-15T12:57:38.713Z,7.75
2023-03-15T13:00:25.671Z,9.25
2023-03-15T13:03:16.357Z,11.23
2023-03-15T13:06:06.480Z,15.70
2023-03-15T13:08:57.292Z,13.95
2023-03-15T13:11:44.190Z,9.38
2023-03-15T13:14:40.346Z,6.70
2023-03-15T13:17:35.634Z,8.23
2023-03-15T13:20:40.162Z,6.82
2023-03-15T13:23:22.216Z,8.02
2023-03-15T13:26:21.163Z,9.20
2023-03-15T13:29:06.288Z,5.72
2023-03-15T13:31:34.175Z,6.25
2023-03-15T13:34:19.391Z,5.55
2023-03-15T13:36:54.694Z,8.35
2023-03-15T13:39:29.369Z,7.55
2023-03-15T13:42:26.692Z,5.07
2023-03-15T13:45:06.432Z,7.82
2023-03-15T13:47:35.176Z,6.32
2023-03-15T13:50:07.422Z,9.45
2023-03-15T13:52:34.815Z,8.82
2023-03-15T13:55:03.183Z,7.97
2023-03-15T13:57:30.359Z,6.35
2023-03-15T14:00:11.670Z,6.65
2023-03-15T14:02:51.578Z,5.53
2023-03-15T14:05:27.261Z,5.38
2023-03-15T14:08:06.996Z,5.75
2023-03-15T14:10:39.577Z,4.40
2023-03-15T14:13:46.865Z,8.38
2023-03-15T14:16:57.265Z,3.22
2023-03-15T14:19:33.942Z,9.45
2023-03-15T14:22:12.512Z,10.10
2023-03-15T14:24:43.066Z,8.02
2023-03-15T14:27:21.478Z,6.95
2023-03-15T14:29:55.400Z,6.97
2023-03-15T14:32:35.037Z,6.60
2023-03-15T14:35:18.932Z,5.75
2023-03-15T14:37:47.038Z,5.28
2023-03-15T14:40:22.253Z,11.68
2023-03-15T14:42:50.859Z,8.55
2023-03-15T14:45:19.263Z,6.78
2023-03-15T14:48:02.239Z,8.93
2023-03-15T14:55:34.958Z,17.48
2023-03-15T14:58:23.549Z,13.18
2023-03-15T15:00:55.003Z,9.98
2023-03-15T15:03:40.253Z,8.45
2023-03-15T15:06:13.039Z,8.98
2023-03-15T15:08:45.480Z,10.00
2023-03-15T15:11:12.545Z,12.77
2023-03-15T15:13:41.353Z,10.40
2023-03-15T15:16:09.071Z,12.02
2023-03-15T15:18:37.728Z,8.98
2023-03-15T15:21:11.941Z,9.38
2023-03-15T15:23:56.986Z,8.85
2023-03-15T15:26:31.368Z,8.77
2023-03-15T15:28:59.600Z,7.55
2023-03-15T15:31:28.902Z,11.65
2023-03-15T15:33:57.275Z,9.15
2023-03-15T15:36:31.237Z,9.25
2023-03-15T15:39:07.163Z,9.35
2023-03-15T15:41:35.077Z,11.18
2023-03-15T15:44:02.299Z,10.63
2023-03-15T15:46:29.473Z,7.68
2023-03-15T15:48:56.748Z,9.88
2023-03-15T15:51:35.207Z,8.52
2023-03-15T15:54:02.579Z,8.90
2023-03-15T15:56:40.368Z,9.32
2023-03-15T15:59:15.059Z,6.43
2023-03-15T16:01:59.008Z,7.30
2023-03-15T16:04:29.237Z,8.57
2023-03-15T16:07:01.467Z,6.22
2023-03-15T16:09:31.917Z,7.43
2023-03-15T16:11:59.097Z,6.50
2023-03-15T16:14:26.486Z,8.57
2023-03-15T16:16:53.489Z,8.40
2023-03-15T16:19:20.642Z,8.73
2023-03-15T16:21:52.359Z,11.85
2023-03-15T16:24:30.093Z,10.63
2023-03-15T16:27:04.738Z,10.63
2023-03-15T16:29:47.279Z,9.38
2023-03-15T16:32:32.903Z,14.50
2023-03-15T16:35:01.839Z,12.50
2023-03-15T16:37:33.023Z,15.55
2023-03-15T16:40:01.567Z,9.88
2023-03-15T16:42:28.883Z,13.60
2023-03-15T16:44:56.384Z,10.57
2023-03-15T16:47:23.309Z,10.88
2023-03-15T16:49:50.559Z,13.80
2023-03-15T16:52:17.985Z,11.18
2023-03-15T16:54:47.578Z,9.60
2023-03-15T16:57:23.215Z,11.70
2023-03-15T16:59:51.163Z,10.25
2023-03-15T17:02:23.003Z,13.88
2023-03-15T17:04:51.125Z,14.48
2023-03-15T17:07:21.357Z,11.82
2023-03-15T17:09:50.429Z,14.93
2023-03-15T17:12:25.872Z,14.85
2023-03-15T17:14:57.508Z,14.80
2023-03-15T17:17:28.110Z,14.35
2023-03-15T17:19:55.349Z,15.50
2023-03-15T17:22:22.736Z,13.30
2023-03-15T17:24:50.604Z,14.82
2023-03-15T17:27:35.373Z,17.27
2023-03-15T17:30:08.920Z,15.57
2023-03-15T17:32:35.901Z,17.60
2023-03-15T17:35:03.312Z,16.92
2023-03-15T17:37:35.667Z,17.33
2023-03-15T17:42:39.708Z,15.38
2023-03-15T17:45:22.432Z,14.02
2023-03-15T17:47:50.782Z,16.67
2023-03-15T17:50:18.988Z,17.50
2023-03-15T17:52:51.049Z,17.55
2023-03-15T17:55:21.881Z,17.08
2023-03-15T17:57:54.720Z,14.57
2023-03-15T18:00:24.848Z,17.42
2023-03-15T18:02:56.069Z,15.52
2023-03-15T18:05:27.257Z,16.95
2023-03-15T18:08:01.903Z,14.18
2023-03-15T18:10:36.996Z,14.65
2023-03-15T18:13:05.489Z,17.42
2023-03-15T18:15:33.864Z,18.15
2023-03-15T18:18:01.080Z,14.43
2023-03-15T18:20:28.776Z,16.02
2023-03-15T18:22:55.775Z,15.20
2023-03-15T18:25:28.102Z,17.48
2023-03-15T18:27:55.284Z,18.27
2023-03-15T18:30:25.888Z,19.60
2023-03-15T18:32:54.397Z,22.52
2023-03-15T18:35:29.912Z,24.80
2023-03-15T18:37:57.836Z,26.00
2023-03-15T18:40:29.464Z,27.92
2023-03-15T18:42:57.916Z,28.60
2023-03-15T18:45:34.665Z,33.13
2023-03-15T18:48:01.928Z,32.42
2023-03-15T18:50:30.434Z,30.05
2023-03-15T18:52:58.253Z,28.52
2023-03-15T18:55:26.152Z,30.80
2023-03-15T18:57:55.297Z,33.63
2023-03-15T19:00:27.992Z,27.75
2023-03-15T19:05:26.257Z,28.77
2023-03-15T19:07:53.713Z,27.75
2023-03-15T19:10:23.342Z,27.50
2023-03-15T19:12:52.973Z,28.90
2023-03-15T19:15:22.422Z,26.08
2023-03-15T19:17:54.320Z,25.67
2023-03-15T19:20:23.620Z,28.58
2023-03-15T19:22:52.483Z,25.23
2023-03-15T19:25:20.416Z,22.73
2023-03-15T19:27:47.863Z,24.75
2023-03-15T19:30:20.738Z,24.25
2023-03-15T19:35:19.317Z,21.10
2023-03-15T19:37:47.653Z,23.48
2023-03-15T19:40:16.684Z,22.33
2023-03-15T19:42:44.520Z,21.30
2023-03-15T19:45:13.053Z,22.38
2023-03-15T19:47:40.689Z,20.13
2023-03-15T19:50:11.427Z,22.20
2023-03-15T19:52:45.665Z,19.23
2023-03-15T19:55:20.226Z,20.17
2023-03-15T19:57:47.954Z,22.08
2023-03-15T20:00:18.431Z,24.42
2023-03-15T20:02:46.226Z,25.17
2023-03-15T20:05:18.774Z,30.08
2023-03-15T20:07:47.236Z,23.55
2023-03-15T20:10:15.092Z,26.17
2023-03-15T20:12:42.684Z,27.70
2023-03-15T20:15:16.763Z,27.67
2023-03-15T20:17:44.731Z,30.98
2023-03-15T20:20:15.323Z,24.10
2023-03-15T20:22:45.273Z,29.92
2023-03-15T20:25:18.541Z,33.35
2023-03-15T20:27:45.993Z,33.78
2023-03-15T20:30:16.910Z,34.85
2023-03-15T20:32:44.337Z,32.83
2023-03-15T20:35:14.676Z,35.17
2023-03-15T20:37:42.745Z,35.38
2023-03-15T20:40:14.417Z,32.35
2023-03-15T20:42:42.494Z,33.13
2023-03-15T20:45:12.266Z,35.78
2023-03-15T20:47:41.324Z,33.03
2023-03-15T20:50:11.021Z,33.15
2023-03-15T20:52:38.077Z,31.48
2023-03-15T20:55:07.889Z,33.53
2023-03-15T20:57:36.397Z,31.67
2023-03-15T21:00:12.321Z,37.60
2023-03-15T21:02:40.402Z,36.92
2023-03-15T21:05:09.632Z,31.65
2023-03-15T21:07:37.136Z,33.75
2023-03-15T21:10:04.986Z,35.55
2023-03-15T21:12:32.025Z,37.22
2023-03-15T21:14:59.224Z,38.25
2023-03-15T21:17:26.146Z,38.60
2023-03-15T21:19:53.957Z,44.08
2023-03-15T21:22:21.248Z,44.92
2023-03-15T21:24:55.601Z,50.90
2023-03-15T21:27:26.450Z,49.03
2023-03-15T21:29:54.450Z,44.15
2023-03-15T21:32:21.567Z,48.95
2023-03-15T21:34:48.791Z,43.92
2023-03-15T21:37:15.679Z,49.65
2023-03-15T21:39:42.897Z,51.50
2023-03-15T21:42:09.995Z,49.80
2023-03-15T21:44:39.877Z,54.85
2023-03-15T21:47:06.894Z,52.15
2023-03-15T21:49:34.131Z,51.13
2023-03-15T21:52:05.343Z,51.45
2023-03-15T21:54:32.562Z,50.53
2023-03-15T21:56:59.521Z,49.22
2023-03-15T21:59:29.600Z,56.65
2023-03-15T22:01:57.526Z,51.92
2023-03-15T22:04:25.151Z,51.88
2023-03-15T22:06:55.168Z,46.67
2023-03-15T22:09:23.324Z,46.97
2023-03-15T22:11:50.782Z,46.83
2023-03-15T22:14:18.485Z,47.38
2023-03-15T22:16:45.551Z,49.42
2023-03-15T22:19:13.138Z,43.38
2023-03-15T22:21:40.117Z,44.90
2023-03-15T22:24:09.217Z,46.33
2023-03-15T22:26:36.504Z,49.38
2023-03-15T22:29:03.741Z,46.15
2023-03-15T22:31:33.697Z,49.22
2023-03-15T22:34:02.989Z,45.60
2023-03-15T22:36:33.627Z,52.10
2023-03-15T22:39:03.927Z,41.30
2023-03-15T22:41:30.917Z,41.92
2023-03-15T22:43:58.140Z,42.63
2023-03-15T22:46:25.362Z,40.70
2023-03-15T22:48:53.257Z,40.45
2023-03-15T22:51:20.387Z,39.42
2023-03-15T22:53:47.732Z,37.97
2023-03-15T22:56:14.868Z,37.40
2023-03-15T22:58:42.289Z,38.13
2023-03-15T23:01:10.258Z,34.15
2023-03-15T23:03:37.449Z,38.53
2023-03-15T23:06:06.360Z,31.63
2023-03-15T23:08:33.558Z,36.33
2023-03-15T23:11:00.623Z,29.15
2023-03-15T23:13:29.683Z,33.47
2023-03-15T23:15:56.924Z,30.60
2023-03-15T23:18:24.292Z,28.20
2023-03-15T23:20:51.481Z,28.10
2023-03-15T23:23:18.657Z,29.17
2023-03-15T23:25:46.840Z,25.73
2023-03-15T23:28:17.023Z,27.60
2023-03-15T23:30:45.808Z,23.13
2023-03-15T23:33:13.400Z,25.77
2023-03-15T23:35:40.481Z,25.05
2023-03-15T23:38:08.515Z,24.52
2023-03-15T23:40:35.867Z,24.92
2023-03-15T23:43:03.009Z,24.02
2023-03-15T23:45:30.305Z,23.58
2023-03-15T23:47:58.107Z,20.65
2023-03-15T23:50:26.439Z,21.55
2023-03-15T23:52:56.056Z,26.48
2023-03-15T23:55:24.352Z,24.00
2023-03-15T23:57:51.797Z,26.75
